Time;durP1;ratioP1;P1;durP2;ratioP2;P2;SDS_P1;SDS_P2;PMS_P1;PMS_P2;Temp;Humidity;BMP_temperature;BMP_pressure;BME280_temperature;BME280_humidity;BME280_pressure;Samples;Min_cycle;Max_cycle;Signal;HPM_P1;HPM_P2
2021/03/15 00:01:11;;;;;;;6.35;2.03;;;3.70;92.60;;;;;;5054702;28;20102;-58
2021/03/15 00:03:45;;;;;;;3.38;1.55;;;3.70;92.30;;;;;;5059372;28;20461;-58
2021/03/15 00:06:17;;;;;;;5.82;2.40;;;3.70;92.30;;;;;;5058340;28;20289;-58
2021/03/15 00:08:44;;;;;;;4.20;1.80;;;3.70;92.50;;;;;;5061419;28;20083;-58
2021/03/15 00:11:12;;;;;;;3.88;1.48;;;3.70;92.20;;;;;;5059136;28;20054;-57
2021/03/15 00:13:39;;;;;;;3.47;1.25;;;3.70;92.40;;;;;;5059312;28;20043;-58
2021/03/15 00:16:06;;;;;;;2.38;1.05;;;3.80;92.10;;;;;;5058992;28;20090;-58
2021/03/15 00:18:33;;;;;;;3.90;1.27;;;3.80;91.80;;;;;;5055954;28;20048;-58
2021/03/15 00:21:00;;;;;;;2.55;1.00;;;3.90;91.90;;;;;;5067932;28;20052;-58
2021/03/15 00:23:29;;;;;;;3.25;1.65;;;4.00;92.00;;;;;;5059469;28;20055;-58
2021/03/15 00:25:56;;;;;;;6.32;1.80;;;3.90;91.90;;;;;;5058631;28;20065;-58
2021/03/15 00:28:24;;;;;;;2.88;1.27;;;3.90;91.80;;;;;;5073174;28;20049;-57
2021/03/15 00:30:51;;;;;;;7.53;1.25;;;3.90;91.80;;;;;;5057329;28;20155;-58
2021/03/15 00:33:18;;;;;;;4.55;1.55;;;3.90;92.10;;;;;;5055322;28;20305;-59
2021/03/15 00:35:45;;;;;;;4.18;1.60;;;3.90;91.90;;;;;;5067965;28;20057;-59
2021/03/15 00:38:12;;;;;;;2.35;1.10;;;3.90;92.00;;;;;;5058578;28;20064;-57
2021/03/15 00:40:39;;;;;;;6.15;1.73;;;3.90;92.10;;;;;;5059648;28;20214;-58
2021/03/15 00:43:06;;;;;;;3.88;1.50;;;3.80;92.10;;;;;;5060435;28;20049;-58
2021/03/15 00:45:34;;;;;;;9.73;1.80;;;3.80;92.10;;;;;;5060650;28;20040;-59
2021/03/15 00:48:02;;;;;;;3.45;1.05;;;3.80;92.00;;;;;;5060223;28;20052;-58
2021/03/15 00:50:33;;;;;;;3.70;1.30;;;3.80;92.00;;;;;;5052955;28;20052;-58
2021/03/15 00:53:06;;;;;;;5.70;2.15;;;3.80;92.10;;;;;;5059582;28;20049;-58
2021/03/15 00:55:33;;;;;;;7.15;2.78;;;3.70;92.10;;;;;;5061797;28;20106;-58
2021/03/15 00:58:00;;;;;;;2.38;1.30;;;3.80;91.90;;;;;;5055837;28;20057;-58
2021/03/15 01:00:34;;;;;;;3.97;1.25;;;3.80;91.90;;;;;;5065618;28;20049;-58
2021/03/15 01:03:33;;;;;;;4.65;1.75;;;3.70;92.20;;;;;;5056509;28;20822;-58
2021/03/15 01:06:05;;;;;;;2.90;1.33;;;3.70;92.10;;;;;;5057314;28;20108;-58
2021/03/15 01:08:39;;;;;;;3.72;1.40;;;3.60;92.20;;;;;;5059777;28;20044;-58
2021/03/15 01:11:12;;;;;;;3.47;1.20;;;3.60;92.60;;;;;;5051606;28;20060;-57
2021/03/15 01:13:45;;;;;;;4.95;1.60;;;3.50;92.80;;;;;;5075441;28;20116;-58
2021/03/15 01:16:18;;;;;;;4.43;1.00;;;3.40;93.00;;;;;;5073713;28;20393;-58
2021/03/15 01:18:46;;;;;;;6.90;1.58;;;3.30;93.40;;;;;;5058588;28;20150;-59
2021/03/15 01:21:14;;;;;;;2.55;1.20;;;3.30;93.40;;;;;;5059494;28;20053;-59
2021/03/15 01:23:41;;;;;;;4.20;1.90;;;3.20;93.70;;;;;;5060207;28;20108;-58
2021/03/15 01:26:12;;;;;;;4.07;1.55;;;3.30;93.70;;;;;;5059202;28;20394;-58
2021/03/15 01:28:42;;;;;;;5.35;2.17;;;3.20;93.70;;;;;;5056500;28;20072;-58
2021/03/15 01:31:09;;;;;;;3.87;1.70;;;3.20;93.60;;;;;;5057759;28;20063;-58
2021/03/15 01:33:36;;;;;;;2.15;0.88;;;3.20;93.60;;;;;;5060651;28;20061;-57
2021/03/15 01:36:05;;;;;;;2.75;1.25;;;3.20;93.40;;;;;;5059227;28;20139;-58
2021/03/15 01:38:32;;;;;;;1.98;0.88;;;3.20;93.40;;;;;;5058903;28;20336;-58
2021/03/15 01:40:59;;;;;;;3.35;0.88;;;3.20;93.70;;;;;;5056921;28;20049;-58
2021/03/15 01:43:26;;;;;;;2.03;0.88;;;3.20;93.50;;;;;;5056085;28;20140;-58
2021/03/15 01:45:53;;;;;;;3.17;0.88;;;3.10;93.10;;;;;;5055809;28;20053;-58
2021/03/15 01:48:20;;;;;;;6.70;1.73;;;3.10;93.50;;;;;;5058817;28;20037;-58
2021/03/15 01:50:49;;;;;;;3.95;1.20;;;3.10;93.30;;;;;;5057673;28;20049;-57
2021/03/15 01:53:18;;;;;;;2.33;0.95;;;3.10;93.30;;;;;;5039947;28;20555;-57
2021/03/15 01:55:46;;;;;;;2.22;1.05;;;3.20;93.10;;;;;;5040539;28;20065;-58
2021/03/15 01:58:14;;;;;;;1.95;0.82;;;3.10;93.10;;;;;;5040260;28;20229;-58
2021/03/15 02:00:41;;;;;;;3.10;1.15;;;3.20;93.50;;;;;;5036550;28;20080;-58
2021/03/15 02:03:11;;;;;;;2.80;1.10;;;3.20;93.30;;;;;;5014872;28;20380;-58
2021/03/15 02:05:40;;;;;;;1.50;0.93;;;3.20;93.10;;;;;;5040810;28;20058;-58
2021/03/15 02:08:08;;;;;;;2.40;1.15;;;3.30;93.40;;;;;;5042030;28;20194;-58
2021/03/15 02:10:36;;;;;;;2.63;1.17;;;3.30;93.00;;;;;;5041135;28;20399;-57
2021/03/15 02:13:24;;;;;;;3.35;1.17;;;3.30;93.10;;;;;;5040412;28;20393;-58
2021/03/15 02:16:01;;;;;;;3.03;1.45;;;3.30;93.30;;;;;;5041126;28;20096;-58
2021/03/15 02:18:39;;;;;;;2.38;1.10;;;3.30;93.00;;;;;;5038914;28;20120;-58
2021/03/15 02:21:44;;;;;;;2.03;0.90;;;3.30;93.20;;;;;;5027598;28;20094;-57
2021/03/15 02:24:20;;;;;;;2.42;1.10;;;3.30;93.30;;;;;;5037317;28;20287;-58
2021/03/15 02:27:14;;;;;;;3.28;1.42;;;3.20;93.20;;;;;;5039859;28;20041;-58
2021/03/15 02:30:20;;;;;;;2.50;1.00;;;3.20;93.30;;;;;;5038561;28;20367;-58
2021/03/15 02:33:17;;;;;;;1.80;0.88;;;3.30;93.40;;;;;;5053627;28;20050;-58
2021/03/15 02:35:46;;;;;;;4.40;1.65;;;3.40;93.30;;;;;;5036879;28;20748;-57
2021/03/15 02:38:14;;;;;;;7.30;1.67;;;3.40;93.30;;;;;;5042722;28;20037;-58
2021/03/15 02:40:46;;;;;;;3.67;1.30;;;3.40;93.30;;;;;;5034750;28;20065;-58
2021/03/15 02:43:18;;;;;;;4.15;1.70;;;3.50;93.40;;;;;;5039509;28;20060;-59
2021/03/15 02:45:46;;;;;;;1.95;1.00;;;3.60;93.00;;;;;;5036998;28;20053;-58
2021/03/15 02:48:14;;;;;;;3.83;1.83;;;3.60;92.60;;;;;;5042827;28;20064;-58
2021/03/15 02:50:44;;;;;;;2.85;1.65;;;3.40;92.80;;;;;;5059321;28;20217;-59
2021/03/15 02:53:16;;;;;;;7.10;2.53;;;3.30;93.00;;;;;;5062255;28;20057;-58
2021/03/15 02:55:46;;;;;;;3.78;2.30;;;3.30;92.90;;;;;;5061829;28;20053;-58
2021/03/15 02:58:14;;;;;;;2.80;1.20;;;3.40;93.00;;;;;;5073359;28;20123;-58
2021/03/15 03:00:43;;;;;;;3.22;1.52;;;3.40;93.30;;;;;;5054771;28;20116;-58
2021/03/15 03:03:11;;;;;;;5.07;2.20;;;3.50;93.30;;;;;;5058637;28;20117;-59
2021/03/15 03:05:38;;;;;;;5.45;2.25;;;3.50;93.40;;;;;;5062116;28;20080;-59
2021/03/15 03:08:08;;;;;;;5.35;1.85;;;3.60;93.60;;;;;;5058274;28;20045;-59
2021/03/15 03:10:37;;;;;;;3.53;1.48;;;3.60;93.60;;;;;;5050145;28;20112;-59
2021/03/15 03:13:06;;;;;;;6.70;2.30;;;3.60;93.40;;;;;;5055229;28;20045;-59
2021/03/15 03:15:35;;;;;;;3.63;1.88;;;3.60;93.40;;;;;;5061959;28;20232;-59
2021/03/15 03:18:08;;;;;;;9.35;2.00;;;3.60;93.20;;;;;;5056297;28;20045;-59
2021/03/15 03:20:35;;;;;;;7.80;2.38;;;3.50;93.50;;;;;;5056188;28;20136;-58
2021/03/15 03:23:08;;;;;;;4.82;2.13;;;3.50;93.50;;;;;;5049708;28;20061;-59
2021/03/15 03:25:37;;;;;;;4.07;1.70;;;3.50;93.50;;;;;;5053466;28;20100;-59
2021/03/15 03:28:11;;;;;;;6.03;1.77;;;3.50;93.70;;;;;;5050342;28;20068;-59
2021/03/15 03:30:40;;;;;;;3.85;1.85;;;3.50;93.80;;;;;;5053206;28;20373;-59
2021/03/15 03:33:09;;;;;;;6.78;1.73;;;3.50;93.40;;;;;;5050501;28;20061;-59
2021/03/15 03:35:37;;;;;;;3.38;1.60;;;3.50;93.40;;;;;;5053918;28;20056;-58
2021/03/15 03:38:04;;;;;;;3.03;1.63;;;3.50;93.30;;;;;;5052866;28;20112;-59
2021/03/15 03:40:31;;;;;;;5.85;1.77;;;3.60;92.90;;;;;;5055614;28;20131;-59
2021/03/15 03:43:00;;;;;;;4.43;1.70;;;3.60;93.30;;;;;;5045407;28;20128;-59
2021/03/15 03:45:31;;;;;;;3.92;1.98;;;3.60;93.40;;;;;;5055225;28;20049;-59
2021/03/15 03:47:58;;;;;;;4.32;1.70;;;3.60;93.50;;;;;;5049962;28;20267;-58
2021/03/15 03:50:28;;;;;;;6.78;2.10;;;3.60;93.60;;;;;;5050960;28;20143;-59
2021/03/15 03:52:58;;;;;;;5.83;2.23;;;3.60;93.50;;;;;;5044230;28;20040;-59
2021/03/15 03:55:31;;;;;;;8.73;2.42;;;3.60;93.60;;;;;;5046908;28;20304;-59
2021/03/15 03:58:04;;;;;;;3.17;1.90;;;3.60;93.80;;;;;;5050510;28;20048;-59
2021/03/15 04:00:34;;;;;;;4.03;1.90;;;3.60;93.40;;;;;;5045310;28;20063;-59
2021/03/15 04:03:13;;;;;;;5.30;1.92;;;3.60;93.60;;;;;;5052418;28;20047;-58
2021/03/15 04:05:51;;;;;;;5.38;3.65;;;3.60;93.70;;;;;;5061415;28;20243;-59
2021/03/15 04:08:27;;;;;;;4.28;2.15;;;3.70;93.70;;;;;;5046662;28;20494;-59
2021/03/15 04:10:57;;;;;;;3.92;1.58;;;3.70;93.50;;;;;;5053721;28;20059;-59
2021/03/15 04:13:29;;;;;;;9.23;2.15;;;3.70;93.80;;;;;;5051003;28;20112;-59
2021/03/15 04:16:03;;;;;;;3.97;1.98;;;3.70;93.80;;;;;;5053718;28;20075;-59
2021/03/15 04:18:35;;;;;;;2.92;1.73;;;3.80;93.80;;;;;;5053691;28;20225;-58
2021/03/15 04:21:05;;;;;;;3.83;2.08;;;3.80;93.90;;;;;;5048011;28;20049;-59
2021/03/15 04:23:39;;;;;;;5.40;1.88;;;3.90;93.20;;;;;;5049975;28;20240;-59
2021/03/15 04:26:08;;;;;;;5.30;2.28;;;3.90;93.70;;;;;;5051440;28;20045;-59
2021/03/15 04:28:37;;;;;;;6.20;1.90;;;3.90;94.20;;;;;;5069303;28;20040;-58
2021/03/15 04:31:05;;;;;;;6.53;2.67;;;3.90;94.10;;;;;;5051450;28;20049;-59
2021/03/15 04:33:33;;;;;;;6.90;2.35;;;3.80;94.50;;;;;;5055064;28;20057;-59
2021/03/15 04:36:01;;;;;;;6.55;2.58;;;3.80;94.60;;;;;;5052168;28;20058;-58
2021/03/15 04:38:29;;;;;;;7.07;2.17;;;3.70;94.60;;;;;;5065870;28;20052;-59
2021/03/15 04:40:56;;;;;;;5.63;2.13;;;3.70;94.80;;;;;;5053521;28;20336;-59
2021/03/15 04:43:24;;;;;;;3.90;1.90;;;3.60;94.80;;;;;;5057547;28;20229;-59
2021/03/15 04:45:52;;;;;;;3.30;1.90;;;3.50;95.40;;;;;;5057204;28;20045;-60
2021/03/15 04:48:21;;;;;;;3.92;2.25;;;3.50;95.50;;;;;;5055519;28;20045;-60
2021/03/15 04:50:52;;;;;;;5.28;2.13;;;3.40;95.90;;;;;;5055613;28;20046;-57
2021/03/15 04:53:20;;;;;;;4.60;2.03;;;3.40;96.60;;;;;;5046693;28;20048;-59
2021/03/15 04:55:47;;;;;;;5.22;1.63;;;3.40;96.30;;;;;;5058025;28;20053;-59
2021/03/15 04:58:16;;;;;;;4.57;1.58;;;3.40;96.40;;;;;;5065189;28;20383;-59
2021/03/15 05:00:46;;;;;;;8.25;2.05;;;3.50;96.70;;;;;;5031812;28;20247;-60
2021/03/15 05:03:16;;;;;;;3.70;1.65;;;3.50;96.60;;;;;;5037669;28;20045;-59
2021/03/15 05:05:45;;;;;;;5.95;1.75;;;3.50;96.10;;;;;;5036344;28;20117;-58
2021/03/15 05:08:16;;;;;;;5.25;1.77;;;3.50;95.70;;;;;;5037546;28;20101;-59
2021/03/15 05:10:44;;;;;;;2.95;1.35;;;3.40;95.10;;;;;;5040068;28;20046;-59
2021/03/15 05:13:13;;;;;;;6.80;1.98;;;3.40;95.10;;;;;;5030935;28;20060;-59
2021/03/15 05:15:40;;;;;;;3.30;1.40;;;3.40;95.00;;;;;;5027666;28;20129;-58
2021/03/15 05:18:08;;;;;;;4.32;1.58;;;3.40;95.00;;;;;;5029367;28;20057;-59
2021/03/15 05:20:38;;;;;;;3.17;1.58;;;3.40;95.20;;;;;;5032794;28;20042;-59
2021/03/15 05:23:09;;;;;;;2.65;1.33;;;3.40;95.00;;;;;;5033009;28;20053;-58
2021/03/15 05:25:38;;;;;;;5.40;1.80;;;3.40;94.70;;;;;;5034711;28;20120;-58
2021/03/15 05:28:06;;;;;;;3.25;1.35;;;3.50;95.00;;;;;;5035222;28;20057;-59
2021/03/15 05:30:35;;;;;;;4.30;1.70;;;3.50;95.70;;;;;;5041064;28;20113;-59
2021/03/15 05:33:09;;;;;;;2.88;1.35;;;3.50;95.60;;;;;;5042322;28;20057;-60
2021/03/15 05:35:39;;;;;;;7.80;1.90;;;3.50;95.00;;;;;;5044293;28;20136;-59
2021/03/15 05:38:06;;;;;;;3.97;2.13;;;3.50;94.80;;;;;;5046193;28;20335;-58
2021/03/15 05:40:36;;;;;;;4.75;1.95;;;3.60;94.90;;;;;;5055061;28;20037;-59
2021/03/15 05:43:28;;;;;;;2.63;1.45;;;3.60;94.70;;;;;;5057091;28;20108;-59
2021/03/15 05:46:28;;;;;;;2.88;1.85;;;3.50;94.70;;;;;;5059630;28;20060;-60
2021/03/15 05:49:28;;;;;;;2.20;0.93;;;3.50;94.40;;;;;;5038356;28;20225;-59
2021/03/15 05:52:10;;;;;;;4.65;1.30;;;3.50;93.80;;;;;;5036041;28;20072;-61
2021/03/15 05:55:17;;;;;;;3.00;1.10;;;3.50;94.30;;;;;;5040030;28;20238;-60
2021/03/15 05:58:17;;;;;;;3.45;1.33;;;3.50;94.40;;;;;;5061932;28;20446;-59
2021/03/15 06:01:07;;;;;;;4.28;1.60;;;3.50;93.90;;;;;;5057326;28;20665;-59
2021/03/15 06:04:23;;;;;;;6.97;2.72;;;3.40;94.40;;;;;;5055869;28;21161;-59
2021/03/15 06:06:53;;;;;;;6.13;2.15;;;3.40;94.70;;;;;;5062637;28;20437;-59
2021/03/15 06:09:29;;;;;;;4.32;1.55;;;3.40;94.50;;;;;;5041498;28;20078;-59
2021/03/15 06:12:03;;;;;;;4.78;1.58;;;3.40;94.20;;;;;;5042735;28;20056;-59
2021/03/15 06:14:31;;;;;;;3.90;1.65;;;3.40;94.30;;;;;;5043589;28;20049;-59
2021/03/15 06:16:58;;;;;;;5.22;1.40;;;3.40;94.30;;;;;;5044502;28;20367;-59
2021/03/15 06:19:25;;;;;;;4.10;2.10;;;3.30;93.60;;;;;;5043281;28;20057;-59
2021/03/15 06:21:53;;;;;;;3.95;1.90;;;3.30;94.10;;;;;;5043425;28;20038;-59
2021/03/15 06:24:21;;;;;;;2.83;1.77;;;3.30;94.60;;;;;;5042646;28;20075;-59
2021/03/15 06:26:49;;;;;;;3.17;1.63;;;3.30;94.40;;;;;;5042195;28;20060;-59
2021/03/15 06:29:17;;;;;;;5.53;2.10;;;3.40;94.20;;;;;;5041072;28;20049;-59
2021/03/15 06:31:49;;;;;;;3.42;1.80;;;3.40;94.10;;;;;;5044006;28;20193;-58
2021/03/15 06:34:17;;;;;;;3.97;1.58;;;3.40;94.50;;;;;;5042957;28;20533;-59
2021/03/15 06:36:45;;;;;;;4.95;1.73;;;3.50;94.90;;;;;;5037376;28;20081;-59
2021/03/15 06:39:13;;;;;;;4.30;2.10;;;3.50;95.00;;;;;;5045374;28;20269;-59
2021/03/15 06:41:42;;;;;;;4.95;1.67;;;3.50;95.10;;;;;;5044097;28;20064;-60
2021/03/15 06:44:10;;;;;;;3.50;1.85;;;3.60;95.10;;;;;;5043265;28;20072;-58
2021/03/15 06:46:40;;;;;;;4.28;2.00;;;3.60;95.00;;;;;;5048049;28;20049;-58
2021/03/15 06:49:07;;;;;;;4.43;2.15;;;3.70;94.90;;;;;;5043960;28;20049;-59
2021/03/15 06:51:35;;;;;;;2.83;1.45;;;3.70;94.80;;;;;;5038005;28;20449;-59
2021/03/15 06:54:03;;;;;;;3.63;2.08;;;3.70;94.90;;;;;;5041250;28;20061;-59
2021/03/15 06:56:30;;;;;;;7.72;2.00;;;3.70;94.40;;;;;;5038505;28;20049;-60
2021/03/15 06:58:59;;;;;;;3.05;1.65;;;3.70;94.50;;;;;;5039493;28;20053;-58
2021/03/15 07:01:26;;;;;;;3.72;1.83;;;3.70;94.20;;;;;;5035626;28;20061;-59
2021/03/15 07:04:05;;;;;;;3.50;1.70;;;3.70;94.40;;;;;;5022632;28;20160;-58
2021/03/15 07:06:36;;;;;;;2.85;1.67;;;3.80;94.80;;;;;;5042408;28;20037;-59
2021/03/15 07:09:08;;;;;;;;;;;3.90;94.80;;;;;;5037189;28;20446;-59
2021/03/15 07:11:35;;;;;;;8.18;2.40;;;3.90;94.80;;;;;;5033607;28;19924;-59
2021/03/15 07:14:06;;;;;;;4.18;2.10;;;3.90;94.50;;;;;;5034496;28;20129;-59
2021/03/15 07:16:34;;;;;;;5.22;2.00;;;3.90;94.30;;;;;;5035910;28;20175;-58
2021/03/15 07:19:10;;;;;;;3.75;1.70;;;4.00;94.40;;;;;;5033654;28;20049;-58
2021/03/15 07:21:42;;;;;;;4.20;1.93;;;4.00;94.60;;;;;;5035571;28;20045;-59
2021/03/15 07:24:11;;;;;;;3.63;1.92;;;4.00;94.90;;;;;;5031948;28;20300;-58
2021/03/15 07:26:43;;;;;;;4.55;2.13;;;4.10;94.70;;;;;;5035139;28;20159;-58
2021/03/15 07:29:13;;;;;;;3.85;2.13;;;4.20;94.50;;;;;;5029182;28;20049;-58
2021/03/15 07:31:43;;;;;;;5.57;2.15;;;4.30;94.20;;;;;;5032167;28;20305;-59
2021/03/15 07:34:15;;;;;;;10.47;4.33;;;4.30;94.10;;;;;;5033720;28;22995;-58
2021/03/15 07:36:48;;;;;;;5.57;2.90;;;4.30;94.20;;;;;;5035722;28;20316;-59
2021/03/15 07:39:15;;;;;;;4.68;2.55;;;4.30;94.10;;;;;;5034756;28;20068;-59
2021/03/15 07:41:45;;;;;;;4.57;2.30;;;4.20;94.00;;;;;;5034120;28;20076;-59
2021/03/15 07:44:25;;;;;;;3.33;2.33;;;4.40;93.50;;;;;;5039343;28;20214;-60
2021/03/15 07:46:54;;;;;;;3.95;1.23;;;4.50;92.80;;;;;;5032969;28;20057;-60
2021/03/15 07:49:30;;;;;;;3.40;1.48;;;4.50;92.90;;;;;;5034756;28;20045;-60
2021/03/15 07:52:00;;;;;;;4.30;2.08;;;4.50;93.50;;;;;;5035988;28;20052;-59
2021/03/15 07:54:32;;;;;;;6.43;1.50;;;4.50;93.40;;;;;;5036675;28;20049;-60
2021/03/15 07:57:16;;;;;;;7.45;2.35;;;4.60;92.80;;;;;;5047962;28;20116;-60
2021/03/15 07:59:45;;;;;;;3.92;1.73;;;4.70;92.90;;;;;;5056933;28;20411;-60
2021/03/15 08:02:16;;;;;;;2.53;1.42;;;4.70;92.30;;;;;;5050711;28;20108;-60
2021/03/15 08:04:44;;;;;;;3.33;1.75;;;4.70;92.50;;;;;;5055014;28;20116;-60
2021/03/15 08:07:13;;;;;;;4.40;2.20;;;4.70;92.20;;;;;;5055611;28;20057;-60
2021/03/15 08:09:42;;;;;;;3.80;1.70;;;4.70;92.40;;;;;;5056893;28;20449;-60
2021/03/15 08:12:11;;;;;;;3.42;1.92;;;4.70;92.10;;;;;;5056064;28;20248;-60
2021/03/15 08:14:39;;;;;;;4.28;2.55;;;4.80;92.70;;;;;;5055573;28;20048;-60
2021/03/15 08:17:11;;;;;;;6.85;2.17;;;5.00;92.20;;;;;;5055994;28;20235;-60
2021/03/15 08:19:39;;;;;;;4.90;2.00;;;5.10;92.40;;;;;;5056888;28;20065;-60
2021/03/15 08:22:09;;;;;;;2.92;1.40;;;5.10;92.20;;;;;;5056822;28;20120;-60
2021/03/15 08:24:39;;;;;;;3.80;1.80;;;5.20;92.00;;;;;;5058319;28;20051;-59
2021/03/15 08:27:07;;;;;;;2.78;1.48;;;5.20;91.80;;;;;;5055369;28;20119;-60
2021/03/15 08:29:39;;;;;;;5.10;1.95;;;5.10;91.90;;;;;;5055966;28;20064;-60
2021/03/15 08:32:09;;;;;;;4.68;1.73;;;5.10;91.90;;;;;;5057943;28;20114;-60
2021/03/15 08:34:40;;;;;;;5.53;1.88;;;5.10;92.20;;;;;;5054805;28;20084;-60
2021/03/15 08:37:11;;;;;;;3.03;1.85;;;5.10;92.50;;;;;;5057917;28;20147;-61
2021/03/15 08:39:43;;;;;;;3.60;1.42;;;5.20;92.60;;;;;;5055886;28;20049;-60
2021/03/15 08:42:25;;;;;;;3.22;1.45;;;5.20;92.00;;;;;;5055481;28;20219;-60
2021/03/15 08:44:52;;;;;;;3.40;1.80;;;5.20;92.10;;;;;;5054762;28;20427;-60
2021/03/15 08:47:49;;;;;;;2.85;1.65;;;5.20;92.20;;;;;;5062736;28;20057;-59
2021/03/15 08:50:57;;;;;;;3.25;1.27;;;5.20;91.70;;;;;;5051452;28;20761;-61
2021/03/15 08:53:45;;;;;;;3.22;1.42;;;5.20;91.70;;;;;;5050522;28;20451;-61
2021/03/15 08:56:13;;;;;;;3.53;1.80;;;5.30;91.80;;;;;;5054352;28;20110;-60
2021/03/15 08:58:41;;;;;;;4.00;1.65;;;5.30;92.60;;;;;;5058641;28;20162;-63
2021/03/15 09:01:10;;;;;;;3.58;1.52;;;5.30;91.90;;;;;;5054943;28;20336;-60
2021/03/15 09:03:49;;;;;;;3.13;1.45;;;5.30;92.30;;;;;;5059680;28;20057;-60
2021/03/15 09:06:46;;;;;;;3.58;1.52;;;5.30;92.50;;;;;;5058147;28;20335;-60
2021/03/15 09:09:14;;;;;;;2.35;1.30;;;5.50;91.80;;;;;;5056880;28;20053;-60
2021/03/15 09:11:51;;;;;;;3.42;1.70;;;5.50;92.00;;;;;;5059607;28;20061;-60
2021/03/15 09:14:38;;;;;;;3.33;1.58;;;5.60;91.70;;;;;;5058044;28;20613;-60
2021/03/15 09:17:35;;;;;;;2.92;1.00;;;5.70;91.90;;;;;;5058561;28;20049;-61
2021/03/15 09:20:20;;;;;;;2.70;0.93;;;5.80;91.20;;;;;;4996954;28;20058;-60
2021/03/15 09:22:47;;;;;;;2.28;1.30;;;5.90;90.10;;;;;;5051252;28;20049;-60
2021/03/15 09:25:22;;;;;;;2.47;1.13;;;6.00;90.90;;;;;;5057311;28;20068;-60
2021/03/15 09:27:54;;;;;;;3.22;1.17;;;5.90;90.30;;;;;;5059396;28;20049;-60
2021/03/15 09:30:23;;;;;;;2.35;1.35;;;6.10;90.30;;;;;;5056230;28;20504;-60
2021/03/15 09:32:52;;;;;;;5.00;1.45;;;6.30;90.50;;;;;;5057060;28;20068;-60
2021/03/15 09:35:23;;;;;;;1.65;0.82;;;6.30;89.60;;;;;;5038249;28;20049;-60
2021/03/15 09:37:53;;;;;;;3.40;1.17;;;6.30;89.20;;;;;;5037696;28;20056;-60
2021/03/15 09:40:22;;;;;;;2.20;1.13;;;6.30;88.80;;;;;;5039341;28;20088;-60
2021/03/15 09:42:49;;;;;;;2.25;1.10;;;6.30;88.30;;;;;;5038985;28;20049;-60
2021/03/15 09:45:32;;;;;;;7.55;2.63;;;6.30;88.90;;;;;;5040096;28;20252;-60
2021/03/15 09:47:59;;;;;;;2.40;1.40;;;6.40;89.10;;;;;;5040901;28;20084;-60
2021/03/15 09:50:30;;;;;;;2.28;0.90;;;6.40;88.40;;;;;;5056853;28;20113;-59
2021/03/15 09:53:10;;;;;;;1.30;0.70;;;6.40;87.30;;;;;;5056326;28;20124;-59
2021/03/15 09:55:39;;;;;;;1.75;0.85;;;6.40;87.60;;;;;;5059942;28;20068;-60
2021/03/15 09:58:09;;;;;;;9.20;5.65;;;6.50;87.80;;;;;;5044490;28;20048;-60
2021/03/15 10:00:44;;;;;;;2.50;1.67;;;6.70;87.40;;;;;;5057325;28;20114;-60
2021/03/15 10:03:37;;;;;;;3.63;1.65;;;6.80;86.80;;;;;;5062200;28;20045;-60
2021/03/15 10:06:24;;;;;;;1.83;0.75;;;6.90;86.60;;;;;;5069307;28;20194;-60
2021/03/15 10:08:57;;;;;;;3.97;1.65;;;6.80;85.60;;;;;;5037936;28;20069;-59
2021/03/15 10:11:43;;;;;;;14.07;9.50;;;6.90;86.80;;;;;;5039537;28;20090;-60
2021/03/15 10:14:29;;;;;;;6.78;3.20;;;7.00;84.70;;;;;;5037738;28;20233;-62
2021/03/15 10:17:22;;;;;;;4.90;1.88;;;6.90;85.10;;;;;;5064054;28;20219;-60
2021/03/15 10:20:25;;;;;;;5.22;2.13;;;6.80;84.60;;;;;;5073639;28;20372;-60
2021/03/15 10:22:55;;;;;;;3.35;1.27;;;6.80;84.40;;;;;;5072206;28;20216;-61
2021/03/15 10:25:23;;;;;;;14.68;9.93;;;6.80;84.30;;;;;;5055407;28;20048;-62
2021/03/15 10:27:57;;;;;;;13.45;7.93;;;7.00;83.50;;;;;;5058440;28;20135;-60
2021/03/15 10:30:29;;;;;;;5.63;2.92;;;7.30;82.80;;;;;;5057244;28;20037;-60
2021/03/15 10:32:57;;;;;;;6.93;2.28;;;7.70;80.80;;;;;;5075013;28;20071;-60
2021/03/15 10:35:25;;;;;;;6.50;2.97;;;8.60;79.00;;;;;;5054891;28;20398;-59
2021/03/15 10:38:07;;;;;;;6.30;3.25;;;9.60;74.20;;;;;;5053731;28;20094;-60
2021/03/15 10:40:46;;;;;;;4.20;1.13;;;11.90;65.10;;;;;;5055071;28;20056;-60
2021/03/15 10:43:20;;;;;;;4.13;1.50;;;13.60;60.00;;;;;;5056692;28;20343;-61
2021/03/15 10:45:48;;;;;;;3.70;1.60;;;14.60;56.10;;;;;;5051827;28;20064;-61
2021/03/15 10:48:16;;;;;;;2.38;0.90;;;15.80;54.10;;;;;;5056592;28;20628;-61
2021/03/15 10:50:58;;;;;;;3.97;1.73;;;14.60;57.00;;;;;;5073078;28;20071;-60
2021/03/15 10:53:45;;;;;;;3.38;1.52;;;12.60;55.70;;;;;;5051745;28;20119;-60
2021/03/15 10:56:18;;;;;;;9.27;3.92;;;11.30;59.40;;;;;;5048139;28;20040;-60
2021/03/15 10:58:51;;;;;;;2.60;0.70;;;10.70;62.30;;;;;;5059723;28;20104;-60
2021/03/15 11:01:26;;;;;;;0.43;0.25;;;10.20;64.40;;;;;;5050441;28;20221;-60
2021/03/15 11:04:09;;;;;;;12.80;5.57;;;9.90;67.20;;;;;;5071386;28;20048;-59
2021/03/15 11:06:40;;;;;;;27.90;15.65;;;9.50;70.40;;;;;;5071672;28;20057;-60
2021/03/15 11:09:17;;;;;;;3.70;1.30;;;9.50;70.90;;;;;;5056092;28;20052;-60
2021/03/15 11:11:54;;;;;;;4.10;1.90;;;12.30;58.10;;;;;;5055071;28;20049;-60
2021/03/15 11:14:23;;;;;;;5.05;1.55;;;15.50;51.60;;;;;;5068653;28;20579;-61
2021/03/15 11:17:10;;;;;;;5.10;2.40;;;16.10;47.90;;;;;;5056395;28;20468;-60
2021/03/15 11:19:53;;;;;;;5.07;2.90;;;16.30;46.40;;;;;;5070894;28;20400;-60
2021/03/15 11:22:49;;;;;;;2.38;0.90;;;17.40;42.10;;;;;;5053194;28;21173;-60
2021/03/15 11:25:22;;;;;;;2.28;0.60;;;17.30;43.30;;;;;;5054048;28;20389;-60
2021/03/15 11:28:05;;;;;;;0.63;0.30;;;15.50;46.00;;;;;;5054522;28;20052;-59
2021/03/15 11:30:32;;;;;;;1.20;0.35;;;13.50;52.20;;;;;;5070202;28;20051;-59
2021/03/15 11:33:23;;;;;;;0.90;0.30;;;12.30;54.40;;;;;;5072745;28;20435;-60
2021/03/15 11:36:15;;;;;;;0.95;0.63;;;11.90;55.00;;;;;;5074603;28;20056;-60
2021/03/15 11:38:50;;;;;;;1.60;0.95;;;12.00;55.40;;;;;;5072066;28;20059;-60
2021/03/15 11:41:25;;;;;;;2.40;0.50;;;15.60;47.80;;;;;;5053857;28;20841;-60
2021/03/15 11:43:53;;;;;;;0.93;0.50;;;17.50;44.20;;;;;;5057348;28;20045;-60
2021/03/15 11:46:21;;;;;;;1.58;0.57;;;16.90;42.00;;;;;;5056899;28;20076;-60
2021/03/15 11:48:48;;;;;;;5.78;0.70;;;15.90;42.80;;;;;;5057202;28;20438;-61
2021/03/15 11:51:39;;;;;;;1.75;0.63;;;15.30;45.90;;;;;;5057580;28;20488;-60
2021/03/15 11:54:25;;;;;;;3.40;0.73;;;17.30;40.70;;;;;;5072694;28;20371;-59
2021/03/15 11:56:53;;;;;;;1.52;0.43;;;16.40;40.40;;;;;;5056883;28;20056;-59
2021/03/15 11:59:24;;;;;;;1.67;0.50;;;16.80;41.20;;;;;;5070102;28;20135;-60
2021/03/15 12:01:59;;;;;;;3.20;0.60;;;17.20;40.70;;;;;;5049209;28;20124;-59
2021/03/15 12:04:29;;;;;;;1.75;0.55;;;18.00;37.10;;;;;;5056804;28;20045;-59
2021/03/15 12:06:59;;;;;;;1.15;0.45;;;18.20;34.30;;;;;;5068810;28;20041;-60
2021/03/15 12:09:37;;;;;;;5.75;1.02;;;16.80;37.70;;;;;;5055107;28;20145;-60
2021/03/15 12:12:07;;;;;;;0.80;0.32;;;16.60;39.10;;;;;;5071889;28;20051;-59
2021/03/15 12:14:55;;;;;;;2.10;0.55;;;15.60;39.80;;;;;;5056323;28;20354;-58
2021/03/15 12:17:23;;;;;;;1.23;0.60;;;15.40;41.00;;;;;;5072894;28;20390;-60
2021/03/15 12:19:53;;;;;;;1.85;0.70;;;14.10;44.20;;;;;;5053842;28;20056;-59
2021/03/15 12:22:38;;;;;;;2.45;0.70;;;12.70;47.30;;;;;;5069490;28;20057;-60
2021/03/15 12:25:07;;;;;;;3.22;1.25;;;12.20;48.60;;;;;;5057548;28;20053;-59
2021/03/15 12:27:42;;;;;;;1.70;0.60;;;12.00;47.60;;;;;;5053815;28;20048;-60
2021/03/15 12:30:12;;;;;;;5.57;0.77;;;11.20;49.80;;;;;;5070352;28;20182;-60
2021/03/15 12:32:39;;;;;;;1.00;0.40;;;13.00;48.00;;;;;;5056491;28;20041;-60
2021/03/15 12:35:07;;;;;;;2.55;1.17;;;16.60;41.60;;;;;;5070530;28;20040;-60
2021/03/15 12:37:34;;;;;;;3.53;0.93;;;18.70;37.20;;;;;;5036122;28;20094;-59
2021/03/15 12:40:05;;;;;;;4.82;0.77;;;17.20;37.80;;;;;;5048769;28;20041;-60
2021/03/15 12:42:35;;;;;;;;;;;15.20;41.00;;;;;;5046326;28;20091;-58
2021/03/15 12:45:11;;;;;;;1.27;0.60;;;14.10;44.40;;;;;;5055067;28;20112;-60
2021/03/15 12:47:46;;;;;;;7.50;1.20;;;13.60;47.10;;;;;;5033815;28;20556;-60
2021/03/15 12:50:14;;;;;;;0.60;0.40;;;16.40;39.50;;;;;;5053035;28;20101;-59
2021/03/15 12:52:42;;;;;;;4.40;1.25;;;17.10;38.50;;;;;;5051893;28;20419;-60
2021/03/15 12:55:22;;;;;;;1.07;0.63;;;16.30;39.50;;;;;;5051903;28;20773;-59
2021/03/15 12:57:52;;;;;;;4.15;0.93;;;15.20;41.90;;;;;;5031591;28;20057;-60
2021/03/15 13:00:20;;;;;;;2.78;0.73;;;15.90;40.70;;;;;;5028614;28;20041;-60
2021/03/15 13:03:11;;;;;;;1.75;0.50;;;17.30;39.60;;;;;;5032397;28;20037;-60
2021/03/15 13:05:38;;;;;;;2.15;0.80;;;19.40;34.70;;;;;;5042369;28;20044;-60
2021/03/15 13:08:35;;;;;;;1.80;0.55;;;21.00;30.40;;;;;;5055531;28;20273;-61
2021/03/15 13:11:34;;;;;;;5.90;0.88;;;20.50;31.30;;;;;;5077781;28;20139;-61
2021/03/15 13:14:21;;;;;;;1.48;0.40;;;21.10;30.40;;;;;;5059630;28;20775;-60
2021/03/15 13:17:00;;;;;;;1.90;0.70;;;20.10;30.80;;;;;;5078421;28;20052;-60
2021/03/15 13:19:29;;;;;;;2.53;0.50;;;17.30;34.10;;;;;;5058846;28;20138;-61
2021/03/15 13:21:57;;;;;;;1.52;0.75;;;16.40;35.10;;;;;;5057089;28;20049;-59
2021/03/15 13:24:24;;;;;;;2.90;1.02;;;15.20;37.60;;;;;;5075857;28;20362;-60
2021/03/15 13:26:55;;;;;;;;;;;15.10;38.90;;;;;;5059695;28;20041;-60